Time;durP1;ratioP1;P1;durP2;ratioP2;P2;SDS_P1;SDS_P2;PMS_P1;PMS_P2;Temp;Humidity;BMP_temperature;BMP_pressure;BME280_temperature;BME280_humidity;BME280_pressure;Samples;Min_cycle;Max_cycle;Signal;HPM_P1;HPM_P2
2022/06/23 00:01:18;;;;;;;2.40;1.08;;;22.60;60.50;;;;;;5052414;28;20041;-59
2022/06/23 00:03:44;;;;;;;2.20;1.00;;;22.60;60.50;;;;;;5085387;28;20063;-59
2022/06/23 00:06:22;;;;;;;1.55;1.08;;;22.60;60.50;;;;;;5055669;28;20512;-58
2022/06/23 00:08:47;;;;;;;3.58;1.40;;;22.60;60.50;;;;;;5055950;28;20040;-59
2022/06/23 00:11:20;;;;;;;2.53;1.00;;;22.60;60.60;;;;;;5056183;28;20052;-59
2022/06/23 00:13:45;;;;;;;1.92;1.00;;;22.60;60.60;;;;;;5055295;28;20041;-59
2022/06/23 00:16:25;;;;;;;2.90;1.35;;;22.60;60.60;;;;;;5056548;28;20218;-59
2022/06/23 00:18:50;;;;;;;2.53;1.00;;;22.60;60.60;;;;;;5085570;28;20488;-59
2022/06/23 00:21:28;;;;;;;2.05;1.20;;;22.60;60.60;;;;;;5055443;28;20043;-59
2022/06/23 00:23:59;;;;;;;3.95;1.10;;;22.60;60.60;;;;;;5087920;28;20412;-60
2022/06/23 00:26:26;;;;;;;2.35;1.10;;;22.60;60.60;;;;;;5087418;28;20549;-60
2022/06/23 00:28:56;;;;;;;2.88;1.10;;;22.50;60.60;;;;;;5087197;28;20128;-60
2022/06/23 00:31:32;;;;;;;2.53;1.10;;;22.50;60.60;;;;;;5056149;28;20059;-60
2022/06/23 00:33:59;;;;;;;3.55;1.38;;;22.50;60.60;;;;;;5054948;28;20045;-60
2022/06/23 00:36:38;;;;;;;3.63;0.98;;;22.50;60.60;;;;;;5054757;28;20044;-61
2022/06/23 00:39:04;;;;;;;3.70;1.20;;;22.50;60.60;;;;;;5055817;28;20033;-60
2022/06/23 00:41:33;;;;;;;2.70;1.00;;;22.50;60.60;;;;;;5070303;28;20037;-60
2022/06/23 00:44:03;;;;;;;2.45;1.20;;;22.50;60.60;;;;;;5071060;28;20049;-60
2022/06/23 00:46:41;;;;;;;2.75;0.90;;;22.50;60.60;;;;;;5070894;28;20056;-60
2022/06/23 00:49:24;;;;;;;3.83;1.30;;;22.50;60.60;;;;;;5070067;28;20041;-60
2022/06/23 00:51:52;;;;;;;3.10;1.10;;;22.50;60.60;;;;;;5087838;28;20150;-60
2022/06/23 00:54:40;;;;;;;1.50;1.00;;;22.50;60.60;;;;;;5070910;28;20072;-59
2022/06/23 00:57:27;;;;;;;2.25;1.50;;;22.50;60.60;;;;;;5081177;28;20056;-60
2022/06/23 01:00:16;;;;;;;3.35;1.25;;;22.50;60.60;;;;;;5087109;28;20052;-59
2022/06/23 01:02:44;;;;;;;2.97;1.10;;;22.50;60.60;;;;;;5054177;28;20508;-60
2022/06/23 01:05:12;;;;;;;2.90;1.38;;;22.50;60.60;;;;;;5070707;28;20056;-60
2022/06/23 01:07:38;;;;;;;;;;;22.50;60.60;;;;;;5087822;28;20076;-60
2022/06/23 01:10:11;;;;;;;2.03;1.00;;;22.40;60.60;;;;;;5054164;28;19963;-59
2022/06/23 01:12:41;;;;;;;3.33;1.13;;;22.40;60.70;;;;;;5085799;28;20052;-59
2022/06/23 01:15:31;;;;;;;3.03;1.20;;;22.40;60.60;;;;;;5055260;28;20090;-60
2022/06/23 01:18:02;;;;;;;3.13;1.02;;;22.40;60.60;;;;;;5086474;28;20561;-60
2022/06/23 01:20:32;;;;;;;4.75;1.65;;;22.40;60.60;;;;;;5055047;28;20099;-61
2022/06/23 01:23:15;;;;;;;2.53;1.00;;;22.40;60.60;;;;;;5069560;28;20603;-60
2022/06/23 01:25:49;;;;;;;2.95;1.30;;;22.40;60.60;;;;;;5054658;28;20491;-59
2022/06/23 01:28:15;;;;;;;2.47;1.13;;;22.40;60.60;;;;;;5087515;28;20476;-60
2022/06/23 01:30:56;;;;;;;2.00;1.00;;;22.40;60.60;;;;;;5086276;28;20565;-60
2022/06/23 01:33:26;;;;;;;1.90;0.95;;;22.40;60.60;;;;;;5054634;28;20045;-60
2022/06/23 01:35:57;;;;;;;1.52;0.90;;;22.40;61.20;;;;;;5086879;28;20076;-60
2022/06/23 01:38:44;;;;;;;3.58;1.05;;;22.40;60.60;;;;;;5086331;28;20041;-60
2022/06/23 01:41:38;;;;;;;2.47;1.10;;;22.40;60.60;;;;;;5054717;28;20053;-60
2022/06/23 01:44:09;;;;;;;2.20;1.00;;;22.40;60.60;;;;;;5056040;28;20130;-60
2022/06/23 01:46:36;;;;;;;2.03;1.00;;;22.40;60.60;;;;;;5069003;28;20098;-59
2022/06/23 01:49:03;;;;;;;3.28;1.00;;;22.40;61.20;;;;;;5054427;28;20048;-60
2022/06/23 01:51:40;;;;;;;2.03;1.15;;;22.40;60.60;;;;;;5086340;28;20542;-60
2022/06/23 01:54:12;;;;;;;2.85;1.00;;;22.40;60.60;;;;;;5054636;28;20049;-60
2022/06/23 01:57:05;;;;;;;2.65;1.23;;;22.40;60.60;;;;;;5086624;28;20081;-60
2022/06/23 01:59:58;;;;;;;2.38;1.08;;;22.40;60.60;;;;;;5053905;28;20049;-59
2022/06/23 02:02:45;;;;;;;2.20;1.05;;;22.40;60.60;;;;;;5053856;28;20049;-60
2022/06/23 02:05:34;;;;;;;2.85;1.23;;;22.40;60.60;;;;;;5054092;28;20045;-60
2022/06/23 02:08:19;;;;;;;2.58;1.10;;;22.40;60.60;;;;;;5084825;28;20156;-60
2022/06/23 02:11:06;;;;;;;2.05;0.77;;;22.40;60.60;;;;;;5053673;28;20462;-60
2022/06/23 02:13:46;;;;;;;2.30;1.00;;;22.30;60.60;;;;;;5053024;28;20412;-60
2022/06/23 02:16:25;;;;;;;2.47;1.00;;;22.30;60.60;;;;;;5083469;28;20047;-60
2022/06/23 02:19:24;;;;;;;2.28;0.90;;;22.30;60.60;;;;;;5053036;28;20091;-59
2022/06/23 02:22:10;;;;;;;1.70;0.90;;;22.40;60.60;;;;;;5079199;28;20057;-59
2022/06/23 02:24:51;;;;;;;1.73;0.95;;;22.30;60.60;;;;;;5066199;28;20086;-60
2022/06/23 02:27:33;;;;;;;2.58;1.02;;;22.30;60.60;;;;;;5082401;28;20044;-60
2022/06/23 02:30:00;;;;;;;2.55;1.00;;;22.30;60.60;;;;;;5053455;28;20129;-60
2022/06/23 02:32:43;;;;;;;2.90;1.10;;;22.30;60.60;;;;;;5053903;28;20147;-60
2022/06/23 02:35:11;;;;;;;2.33;0.95;;;22.30;60.60;;;;;;5052972;28;20045;-60
2022/06/23 02:38:04;;;;;;;2.95;1.02;;;22.30;60.70;;;;;;5053280;28;20047;-60
2022/06/23 02:40:30;;;;;;;1.30;0.90;;;22.30;60.60;;;;;;5053518;28;20110;-59
2022/06/23 02:43:35;;;;;;;2.00;1.10;;;22.30;60.70;;;;;;5052628;28;20040;-60
2022/06/23 02:46:21;;;;;;;1.92;0.90;;;22.30;60.60;;;;;;5070993;28;20056;-59
2022/06/23 02:48:50;;;;;;;3.38;1.00;;;22.20;60.50;;;;;;5052679;28;20041;-59
2022/06/23 02:51:19;;;;;;;2.10;0.98;;;22.30;60.60;;;;;;5053618;28;20045;-59
2022/06/23 02:53:52;;;;;;;1.77;0.80;;;22.30;60.60;;;;;;5053198;28;20063;-59
2022/06/23 02:56:38;;;;;;;1.88;0.88;;;22.20;60.50;;;;;;5084812;28;20045;-59
2022/06/23 02:59:08;;;;;;;1.73;0.95;;;22.30;60.60;;;;;;5067007;28;20045;-59
2022/06/23 03:01:55;;;;;;;1.92;1.08;;;22.20;60.60;;;;;;5085679;28;20118;-60
2022/06/23 03:04:30;;;;;;;1.55;0.90;;;22.20;60.50;;;;;;5053090;28;20048;-60
2022/06/23 03:07:06;;;;;;;2.13;0.98;;;22.20;60.60;;;;;;5067909;28;20128;-60
2022/06/23 03:09:36;;;;;;;1.90;0.95;;;22.20;60.60;;;;;;5052497;28;20048;-60
2022/06/23 03:12:09;;;;;;;1.73;0.98;;;22.20;60.60;;;;;;5067840;28;20503;-60
2022/06/23 03:14:52;;;;;;;2.08;0.73;;;22.20;60.60;;;;;;5085175;28;20499;-60
2022/06/23 03:17:24;;;;;;;1.73;0.90;;;22.20;60.50;;;;;;5052440;28;20125;-59
2022/06/23 03:20:27;;;;;;;2.15;0.77;;;22.20;60.60;;;;;;5052517;28;20072;-60
2022/06/23 03:23:20;;;;;;;2.42;0.73;;;22.20;60.60;;;;;;5051483;28;20416;-60
2022/06/23 03:26:23;;;;;;;2.35;0.88;;;22.20;60.50;;;;;;5084043;28;20094;-60
2022/06/23 03:29:00;;;;;;;2.33;0.80;;;22.20;60.60;;;;;;5052416;28;20036;-59
2022/06/23 03:31:38;;;;;;;2.70;0.90;;;22.20;60.60;;;;;;5082926;28;20085;-60
2022/06/23 03:34:14;;;;;;;2.28;0.82;;;22.20;60.60;;;;;;5052347;28;20076;-60
2022/06/23 03:37:01;;;;;;;2.13;0.90;;;22.20;60.60;;;;;;5084986;28;20045;-60
2022/06/23 03:42:35;;;;;;;1.23;0.70;;;22.20;60.70;;;;;;5052795;28;20049;-60
2022/06/23 03:45:09;;;;;;;1.50;0.70;;;22.10;60.50;;;;;;5051425;28;20048;-60
2022/06/23 03:47:48;;;;;;;1.65;1.05;;;22.20;60.70;;;;;;5067365;28;20721;-60
2022/06/23 03:50:23;;;;;;;2.00;1.00;;;22.10;60.60;;;;;;5084558;28;20388;-60
2022/06/23 03:52:53;;;;;;;2.15;0.85;;;22.20;60.60;;;;;;5084179;28;20044;-60
2022/06/23 03:55:31;;;;;;;1.50;0.82;;;22.20;60.70;;;;;;5067439;28;20033;-60
2022/06/23 03:58:01;;;;;;;;;;;22.20;60.60;;;;;;5066931;28;20106;-60
2022/06/23 04:00:38;;;;;;;1.58;0.80;;;22.10;60.50;;;;;;5050885;28;20284;-60
2022/06/23 04:03:20;;;;;;;1.88;0.80;;;22.10;60.60;;;;;;5084186;28;20033;-60
2022/06/23 04:05:55;;;;;;;1.30;0.90;;;22.10;60.60;;;;;;5049284;28;20045;-60
2022/06/23 04:08:21;;;;;;;2.85;1.00;;;22.10;60.60;;;;;;5051963;28;20045;-61
2022/06/23 04:10:46;;;;;;;1.48;1.05;;;22.10;60.60;;;;;;5051901;28;20056;-60
2022/06/23 04:13:24;;;;;;;2.17;1.08;;;22.20;60.70;;;;;;5050149;28;20493;-60
2022/06/23 04:15:49;;;;;;;1.50;0.90;;;22.10;60.60;;;;;;5050771;28;20053;-60
2022/06/23 04:18:20;;;;;;;1.63;0.77;;;22.10;60.70;;;;;;5051236;28;20102;-60
2022/06/23 04:20:54;;;;;;;1.98;0.93;;;22.20;60.80;;;;;;5051195;28;20116;-60
2022/06/23 04:23:29;;;;;;;1.77;0.90;;;22.20;60.90;;;;;;5067765;28;20049;-60
2022/06/23 04:26:01;;;;;;;3.03;0.90;;;22.20;60.90;;;;;;5051586;28;20493;-60
2022/06/23 04:28:42;;;;;;;1.70;0.98;;;22.20;60.90;;;;;;5051374;28;20045;-60
2022/06/23 04:31:08;;;;;;;1.30;0.75;;;22.20;60.80;;;;;;5051092;28;20041;-60
2022/06/23 04:33:38;;;;;;;2.20;0.95;;;22.20;60.80;;;;;;5051515;28;20091;-60
2022/06/23 04:36:04;;;;;;;1.73;0.90;;;22.20;60.80;;;;;;5067342;28;20068;-60
2022/06/23 04:38:43;;;;;;;1.13;0.80;;;22.20;60.70;;;;;;5050922;28;20481;-60
2022/06/23 04:41:29;;;;;;;2.05;0.80;;;22.20;60.70;;;;;;5049503;28;20056;-60
2022/06/23 04:44:03;;;;;;;1.95;0.88;;;22.20;60.70;;;;;;5068694;28;20087;-60
2022/06/23 04:46:32;;;;;;;1.27;0.80;;;22.20;60.70;;;;;;5050868;28;20049;-60
2022/06/23 04:49:00;;;;;;;3.65;1.10;;;22.30;60.80;;;;;;5049994;28;20045;-60
2022/06/23 04:51:38;;;;;;;1.07;0.87;;;22.30;60.80;;;;;;5054632;28;20040;-60
2022/06/23 04:54:15;;;;;;;2.35;0.88;;;22.20;60.70;;;;;;5054457;28;20314;-60
2022/06/23 04:57:07;;;;;;;1.65;0.90;;;22.30;60.70;;;;;;5054411;28;20037;-60
2022/06/23 04:59:38;;;;;;;2.47;1.05;;;22.30;60.70;;;;;;5054569;28;20048;-60
2022/06/23 05:02:24;;;;;;;2.35;0.90;;;22.30;60.70;;;;;;5054534;28;20051;-63
2022/06/23 05:05:41;;;;;;;1.10;0.70;;;22.40;60.70;;;;;;5054848;28;20094;-60
2022/06/23 05:08:24;;;;;;;1.52;0.80;;;22.40;60.70;;;;;;5045932;28;20053;-59
2022/06/23 05:11:11;;;;;;;1.40;0.90;;;22.40;60.80;;;;;;5054885;28;20048;-60
2022/06/23 05:13:48;;;;;;;1.23;0.80;;;22.40;60.80;;;;;;5055218;28;20511;-60
2022/06/23 05:16:23;;;;;;;2.75;1.00;;;22.40;60.70;;;;;;5053092;28;20477;-60
2022/06/23 05:18:50;;;;;;;2.00;0.93;;;22.40;60.70;;;;;;5053614;28;20408;-60
2022/06/23 05:21:31;;;;;;;1.53;0.97;;;22.40;60.70;;;;;;5037211;28;20143;-60
2022/06/23 05:24:06;;;;;;;1.05;0.80;;;22.40;60.70;;;;;;5062380;28;20313;-59
2022/06/23 05:26:51;;;;;;;2.25;0.82;;;22.40;60.70;;;;;;5073594;28;20051;-59
2022/06/23 05:29:19;;;;;;;1.17;0.70;;;22.40;60.70;;;;;;5073676;28;20044;-60
2022/06/23 05:31:47;;;;;;;1.75;0.75;;;22.40;60.70;;;;;;5074407;28;20059;-59
2022/06/23 05:34:24;;;;;;;1.95;0.90;;;22.40;60.60;;;;;;5073700;28;20119;-59
2022/06/23 05:36:59;;;;;;;3.10;0.98;;;22.40;60.60;;;;;;5072429;28;20337;-59
2022/06/23 05:39:30;;;;;;;2.80;1.00;;;22.40;60.60;;;;;;5073403;28;20365;-59
2022/06/23 05:41:58;;;;;;;3.00;0.90;;;22.50;60.70;;;;;;5072869;28;20494;-60
2022/06/23 05:44:28;;;;;;;;;;;22.50;60.70;;;;;;5073189;28;20051;-59
2022/06/23 05:46:53;;;;;;;1.10;0.80;;;22.50;60.60;;;;;;5074528;28;19999;-59
2022/06/23 05:49:30;;;;;;;1.88;0.90;;;22.50;60.70;;;;;;5073437;28;20137;-59
2022/06/23 05:52:05;;;;;;;2.45;1.00;;;22.50;60.70;;;;;;5072813;28;20093;-59
2022/06/23 05:54:53;;;;;;;1.10;0.80;;;22.50;60.60;;;;;;5073449;28;20036;-60
2022/06/23 05:57:35;;;;;;;1.25;0.88;;;22.60;60.70;;;;;;5073478;28;20079;-59
2022/06/23 06:00:04;;;;;;;1.27;0.88;;;22.50;60.70;;;;;;5073956;28;20502;-59
2022/06/23 06:03:01;;;;;;;1.40;0.93;;;22.50;60.60;;;;;;5073900;28;20040;-59
2022/06/23 06:05:32;;;;;;;1.40;0.90;;;22.60;60.70;;;;;;5063839;28;20132;-60
2022/06/23 06:07:59;;;;;;;2.08;1.05;;;22.60;60.70;;;;;;5073940;28;20044;-60
2022/06/23 06:10:26;;;;;;;1.65;0.90;;;22.60;60.70;;;;;;5074231;28;20058;-60
2022/06/23 06:12:52;;;;;;;1.13;0.90;;;22.60;60.70;;;;;;5072995;28;20488;-59
2022/06/23 06:15:20;;;;;;;1.23;0.82;;;22.60;60.70;;;;;;5072868;28;20119;-60
2022/06/23 06:17:45;;;;;;;;;;;22.70;60.80;;;;;;5073261;28;20049;-60
2022/06/23 06:20:11;;;;;;;2.28;1.00;;;22.60;60.70;;;;;;5073220;28;19927;-61
2022/06/23 06:22:46;;;;;;;2.85;1.35;;;22.60;60.80;;;;;;5073771;28;20044;-61
2022/06/23 06:25:23;;;;;;;7.88;3.83;;;22.60;60.70;;;;;;5073907;28;20051;-61
2022/06/23 06:27:49;;;;;;;9.00;4.50;;;22.60;60.30;;;;;;5071686;28;20068;-61
2022/06/23 06:30:16;;;;;;;7.82;5.13;;;22.50;60.30;;;;;;5074077;28;20094;-61
2022/06/23 06:32:42;;;;;;;6.28;4.07;;;22.40;60.20;;;;;;5071545;28;20032;-61
2022/06/23 06:35:33;;;;;;;10.00;5.15;;;22.40;60.30;;;;;;5072485;28;20424;-61
2022/06/23 06:38:01;;;;;;;8.80;4.88;;;22.30;60.20;;;;;;5071950;28;20049;-61
2022/06/23 06:40:27;;;;;;;8.15;4.95;;;22.20;60.40;;;;;;5072997;28;20043;-61
2022/06/23 06:42:56;;;;;;;8.40;4.68;;;22.20;60.50;;;;;;5072419;28;20033;-61
2022/06/23 06:45:23;;;;;;;7.85;4.50;;;22.10;60.60;;;;;;5069678;28;20072;-62
2022/06/23 06:47:48;;;;;;;5.25;3.60;;;22.10;60.70;;;;;;5054494;28;20396;-61
2022/06/23 06:50:37;;;;;;;7.05;3.67;;;22.10;60.70;;;;;;5073078;28;20548;-61
2022/06/23 06:53:14;;;;;;;8.23;3.72;;;22.10;60.60;;;;;;5073242;28;20048;-62
2022/06/23 06:55:48;;;;;;;5.87;3.70;;;22.10;60.70;;;;;;5071418;28;20047;-62
2022/06/23 06:58:13;;;;;;;10.27;3.88;;;22.10;60.80;;;;;;5055910;28;20306;-62
2022/06/23 07:01:14;;;;;;;8.13;3.28;;;22.20;61.00;;;;;;5073569;28;20041;-62
2022/06/23 07:03:42;;;;;;;8.90;3.80;;;22.20;61.00;;;;;;5069499;28;20475;-62
2022/06/23 07:06:15;;;;;;;8.13;3.53;;;22.20;61.10;;;;;;5071963;28;20090;-62
2022/06/23 07:08:53;;;;;;;7.13;3.85;;;22.20;61.20;;;;;;5070937;28;20044;-61
2022/06/23 07:11:20;;;;;;;7.50;4.18;;;22.20;61.20;;;;;;5071986;28;20049;-62
2022/06/23 07:14:10;;;;;;;6.03;3.67;;;22.30;61.10;;;;;;5072738;28;20115;-63
2022/06/23 07:16:47;;;;;;;7.85;3.60;;;22.30;61.00;;;;;;5072389;28;20053;-63
2022/06/23 07:19:25;;;;;;;5.97;3.45;;;22.30;60.90;;;;;;5071938;28;20055;-63
2022/06/23 07:22:01;;;;;;;6.47;3.10;;;22.30;60.80;;;;;;5056133;28;20052;-63
2022/06/23 07:24:32;;;;;;;7.57;3.30;;;22.30;60.80;;;;;;5072983;28;20044;-63
2022/06/23 07:26:58;;;;;;;8.05;3.85;;;22.40;60.80;;;;;;5072530;28;20052;-63
2022/06/23 07:29:45;;;;;;;6.00;3.25;;;22.40;60.70;;;;;;5072273;28;20048;-62
2022/06/23 07:32:15;;;;;;;6.25;3.25;;;22.40;60.70;;;;;;5072613;28;20466;-63
2022/06/23 07:35:05;;;;;;;5.85;3.28;;;22.40;60.60;;;;;;5072699;28;20598;-62
2022/06/23 07:37:47;;;;;;;7.25;3.33;;;22.40;60.60;;;;;;5065255;28;20052;-63
2022/06/23 07:40:13;;;;;;;6.18;3.33;;;22.40;60.50;;;;;;5071226;28;20416;-63
2022/06/23 07:42:44;;;;;;;6.43;3.20;;;22.40;60.40;;;;;;5071808;28;20040;-63
2022/06/23 07:45:35;;;;;;;4.95;2.67;;;22.40;60.30;;;;;;5071721;28;20516;-62
2022/06/23 07:48:01;;;;;;;9.10;3.30;;;22.40;60.20;;;;;;5071941;28;20063;-64
2022/06/23 07:50:27;;;;;;;5.25;2.95;;;22.40;60.20;;;;;;5070421;28;20044;-62
2022/06/23 07:52:52;;;;;;;5.32;3.05;;;22.40;60.70;;;;;;5054666;28;20044;-62
2022/06/23 07:55:39;;;;;;;7.63;3.30;;;22.40;60.00;;;;;;5071040;28;20083;-62
2022/06/23 07:58:05;;;;;;;7.05;3.13;;;22.40;59.80;;;;;;5070311;28;20507;-62
2022/06/23 08:00:31;;;;;;;8.23;3.45;;;22.40;59.80;;;;;;5054305;28;20468;-62
2022/06/23 08:03:00;;;;;;;8.40;3.05;;;22.40;59.70;;;;;;5071212;28;20515;-62
2022/06/23 08:05:29;;;;;;;6.00;3.08;;;22.40;59.60;;;;;;5054303;28;20051;-62
2022/06/23 08:07:55;;;;;;;7.28;3.63;;;22.40;59.50;;;;;;5072141;28;20126;-64
2022/06/23 08:10:25;;;;;;;8.05;3.60;;;22.40;59.30;;;;;;5072207;28;20068;-61
2022/06/23 08:13:13;;;;;;;6.00;3.65;;;22.40;58.80;;;;;;5069412;28;20052;-62
2022/06/23 08:18:34;;;;;;;9.02;3.38;;;22.40;59.00;;;;;;5070755;28;19921;-61
2022/06/23 08:21:07;;;;;;;6.10;3.03;;;22.40;59.20;;;;;;5070428;28;20045;-62
2022/06/23 08:23:46;;;;;;;4.45;2.90;;;22.40;59.30;;;;;;5072261;28;20515;-62
2022/06/23 08:26:12;;;;;;;4.90;3.20;;;22.40;59.20;;;;;;5075686;28;20044;-62
2022/06/23 08:28:38;;;;;;;5.18;2.78;;;22.40;59.30;;;;;;5074999;28;20476;-61
2022/06/23 08:31:04;;;;;;;4.13;2.75;;;22.40;59.40;;;;;;5058290;28;20476;-61
2022/06/23 08:33:31;;;;;;;4.57;3.00;;;22.40;59.40;;;;;;5074229;28;20038;-62
2022/06/23 08:35:57;;;;;;;8.80;2.90;;;22.40;59.50;;;;;;5074846;28;20049;-61
2022/06/23 08:38:25;;;;;;;6.93;2.72;;;22.40;59.50;;;;;;5075065;28;20116;-61
2022/06/23 08:41:17;;;;;;;5.07;3.28;;;22.40;59.50;;;;;;5057482;28;20047;-61
2022/06/23 08:44:03;;;;;;;6.32;2.95;;;22.40;59.50;;;;;;5074760;28;20040;-61
2022/06/23 08:46:39;;;;;;;5.00;3.13;;;22.50;59.70;;;;;;5074208;28;20048;-61
2022/06/23 08:49:24;;;;;;;7.38;3.15;;;22.40;59.70;;;;;;5074824;28;20047;-61
2022/06/23 08:52:04;;;;;;;6.10;2.95;;;22.40;59.70;;;;;;5074615;28;20152;-61
2022/06/23 08:54:57;;;;;;;4.85;2.70;;;22.40;59.70;;;;;;5073779;28;20411;-61
2022/06/23 08:57:48;;;;;;;4.15;2.60;;;22.40;59.80;;;;;;5074096;28;20084;-61
2022/06/23 09:00:37;;;;;;;4.47;2.85;;;22.40;59.80;;;;;;5067156;28;20056;-61
2022/06/23 09:03:39;;;;;;;5.82;2.45;;;22.40;59.90;;;;;;5075672;28;20128;-61
2022/06/23 09:06:17;;;;;;;4.93;2.97;;;22.40;59.80;;;;;;5060470;28;20073;-61
2022/06/23 09:09:06;;;;;;;4.93;3.00;;;22.40;60.00;;;;;;5073582;28;20032;-61
2022/06/23 09:12:02;;;;;;;3.72;2.53;;;22.40;59.90;;;;;;5074501;28;20048;-61
2022/06/23 09:14:46;;;;;;;3.50;2.67;;;22.40;60.00;;;;;;5073351;28;20519;-61
2022/06/23 09:17:31;;;;;;;5.85;2.95;;;22.40;59.90;;;;;;5075656;28;20472;-61
2022/06/23 09:20:35;;;;;;;4.88;2.60;;;22.50;60.00;;;;;;5073785;28;20052;-61
2022/06/23 09:23:21;;;;;;;4.72;2.42;;;22.50;60.00;;;;;;5073894;28;20048;-61
2022/06/23 09:25:50;;;;;;;4.68;2.50;;;22.50;60.00;;;;;;5074765;28;20098;-62
2022/06/23 09:28:24;;;;;;;7.60;3.00;;;22.40;60.00;;;;;;5074085;28;20072;-61
2022/06/23 09:31:20;;;;;;;3.50;2.40;;;22.50;60.00;;;;;;5073002;28;20063;-61
2022/06/23 09:34:12;;;;;;;4.22;2.40;;;22.50;60.00;;;;;;5074734;28;20486;-61
2022/06/23 09:37:00;;;;;;;5.97;2.50;;;22.50;60.10;;;;;;5071919;28;20052;-61
2022/06/23 09:39:53;;;;;;;4.97;2.67;;;22.50;60.10;;;;;;5073763;28;20515;-61
2022/06/23 09:42:44;;;;;;;7.40;2.70;;;22.50;60.10;;;;;;5074860;28;20109;-61
2022/06/23 09:45:13;;;;;;;5.50;2.72;;;22.50;60.10;;;;;;5073700;28;20522;-60
2022/06/23 09:47:54;;;;;;;4.18;2.47;;;22.50;60.10;;;;;;5074570;28;20522;-60
2022/06/23 09:51:02;;;;;;;4.38;2.35;;;22.50;60.20;;;;;;5057578;28;20481;-61
2022/06/23 09:53:52;;;;;;;3.90;2.40;;;22.50;60.20;;;;;;5059352;28;20086;-61
2022/06/23 09:56:36;;;;;;;4.78;2.63;;;22.50;60.20;;;;;;5074724;28;20468;-61
2022/06/23 09:59:11;;;;;;;2.80;2.30;;;22.50;60.20;;;;;;5057393;28;20560;-61
2022/06/23 10:01:40;;;;;;;6.03;2.50;;;22.50;60.20;;;;;;5073630;28;20045;-61
2022/06/23 10:04:29;;;;;;;4.22;2.42;;;22.50;60.20;;;;;;5072534;28;20044;-61
2022/06/23 10:07:43;;;;;;;3.78;2.50;;;22.50;60.20;;;;;;5074335;28;20480;-61
2022/06/23 10:10:36;;;;;;;4.30;2.42;;;22.50;60.20;;;;;;5071840;28;20420;-61
2022/06/23 10:13:21;;;;;;;5.35;2.28;;;22.50;60.20;;;;;;5073185;28;20040;-61
2022/06/23 10:16:25;;;;;;;3.33;2.10;;;22.50;60.90;;;;;;5073153;28;20642;-61
2022/06/23 10:19:06;;;;;;;3.85;2.22;;;22.50;60.30;;;;;;5073220;28;20079;-61
2022/06/23 10:22:00;;;;;;;4.85;2.65;;;22.50;60.20;;;;;;5074192;28;20084;-61
2022/06/23 10:24:33;;;;;;;4.15;2.30;;;22.50;60.20;;;;;;5072987;28;20062;-61
2022/06/23 10:27:12;;;;;;;6.25;2.50;;;22.50;60.30;;;;;;5055917;28;20236;-62
2022/06/23 10:29:45;;;;;;;4.30;2.20;;;22.60;60.30;;;;;;5072722;28;20076;-61
2022/06/23 10:32:17;;;;;;;4.95;2.25;;;22.60;60.30;;;;;;5073198;28;20036;-61
2022/06/23 10:35:23;;;;;;;4.10;2.10;;;22.60;60.40;;;;;;5073130;28;20055;-61
2022/06/23 10:38:03;;;;;;;3.92;2.20;;;22.60;60.30;;;;;;5072702;28;20036;-62
2022/06/23 10:40:29;;;;;;;4.75;2.42;;;22.60;60.40;;;;;;5073106;28;20037;-62
2022/06/23 10:43:11;;;;;;;3.50;2.08;;;22.60;60.30;;;;;;5073423;28;20081;-62
2022/06/23 10:45:48;;;;;;;3.85;2.00;;;22.60;60.40;;;;;;5056047;28;20048;-62
2022/06/23 10:48:42;;;;;;;3.95;2.10;;;22.60;61.00;;;;;;5072753;28;20044;-62
2022/06/23 10:51:27;;;;;;;4.15;2.33;;;22.60;60.30;;;;;;5072672;28;20093;-61
2022/06/23 10:54:30;;;;;;;4.35;2.17;;;22.60;60.40;;;;;;5072405;28;20043;-61
2022/06/23 10:57:04;;;;;;;3.10;2.15;;;22.60;60.30;;;;;;5072946;28;20087;-61
2022/06/23 10:59:39;;;;;;;4.22;2.35;;;22.60;60.40;;;;;;5073458;28;20068;-61
2022/06/23 11:02:25;;;;;;;3.70;2.10;;;22.60;60.30;;;;;;5072132;28;20044;-62
2022/06/23 11:05:29;;;;;;;3.85;2.53;;;22.60;60.30;;;;;;5071858;28;20044;-62
2022/06/23 11:08:15;;;;;;;3.58;2.33;;;22.60;60.30;;;;;;5071456;28;20048;-62
2022/06/23 11:10:59;;;;;;;3.55;2.20;;;22.60;60.40;;;;;;5072945;28;20040;-61
2022/06/23 11:13:34;;;;;;;3.38;2.30;;;22.70;60.40;;;;;;5073235;28;20544;-61
2022/06/23 11:16:21;;;;;;;3.15;1.92;;;22.70;60.40;;;;;;5070788;28;20442;-61
2022/06/23 11:19:15;;;;;;;3.20;2.10;;;22.60;60.30;;;;;;5072793;28;20049;-62
2022/06/23 11:21:49;;;;;;;3.50;2.20;;;22.60;60.30;;;;;;5071916;28;20131;-61
2022/06/23 11:24:24;;;;;;;5.18;2.30;;;22.70;60.30;;;;;;5071850;28;20079;-62
2022/06/23 11:27:00;;;;;;;3.70;1.83;;;22.60;60.30;;;;;;5055703;28;20123;-62
2022/06/23 11:29:59;;;;;;;3.88;2.10;;;22.70;60.40;;;;;;5072169;28;20066;-61
2022/06/23 11:32:52;;;;;;;4.05;2.00;;;22.70;60.30;;;;;;5071886;28;20055;-62
2022/06/23 11:35:42;;;;;;;2.67;1.88;;;22.70;60.40;;;;;;5072282;28;20052;-62
2022/06/23 11:38:18;;;;;;;2.50;1.80;;;22.70;60.30;;;;;;5073046;28;20119;-62
2022/06/23 11:41:01;;;;;;;2.85;2.10;;;22.70;60.30;;;;;;5071130;28;20049;-62
2022/06/23 11:43:34;;;;;;;3.47;2.17;;;22.70;60.30;;;;;;5070714;28;20048;-62
2022/06/23 11:46:00;;;;;;;4.07;2.33;;;22.70;60.20;;;;;;5071321;28;20054;-61
2022/06/23 11:48:44;;;;;;;4.22;2.00;;;22.70;60.30;;;;;;5072899;28;20119;-62
2022/06/23 11:51:21;;;;;;;3.22;1.95;;;22.70;60.20;;;;;;5071916;28;20549;-61
2022/06/23 11:53:53;;;;;;;3.10;2.08;;;22.70;60.20;;;;;;5055303;28;20075;-62
2022/06/23 11:56:48;;;;;;;3.28;2.00;;;22.70;60.20;;;;;;5070654;28;20040;-61
2022/06/23 11:59:35;;;;;;;3.65;2.03;;;22.70;60.20;;;;;;5070352;28;20544;-61
2022/06/23 12:02:01;;;;;;;2.97;2.10;;;22.70;60.20;;;;;;5070941;28;20059;-62
2022/06/23 12:04:34;;;;;;;2.53;2.15;;;22.70;60.20;;;;;;5071424;28;20044;-62
2022/06/23 12:07:19;;;;;;;2.53;1.75;;;22.70;60.20;;;;;;5071008;28;20693;-62
2022/06/23 12:10:08;;;;;;;2.47;1.80;;;22.70;60.20;;;;;;5071234;28;20055;-62
2022/06/23 12:12:35;;;;;;;3.50;2.20;;;22.70;60.20;;;;;;5071600;28;20045;-61
2022/06/23 12:15:07;;;;;;;3.10;2.03;;;22.70;60.10;;;;;;5054579;28;20142;-61
2022/06/23 12:17:37;;;;;;;2.72;1.77;;;22.80;60.20;;;;;;5071842;28;20094;-61
2022/06/23 12:20:26;;;;;;;2.67;1.80;;;22.70;60.10;;;;;;5054851;28;20041;-61
2022/06/23 12:23:01;;;;;;;4.45;2.10;;;22.80;60.10;;;;;;5071844;28;20052;-61
2022/06/23 12:25:36;;;;;;;3.35;1.98;;;22.80;60.10;;;;;;5071553;28;20055;-62
2022/06/23 12:28:02;;;;;;;4.60;2.13;;;22.80;60.10;;;;;;5070873;28;20047;-62
2022/06/23 12:30:27;;;;;;;3.80;2.00;;;22.80;60.10;;;;;;5072420;28;20036;-62
2022/06/23 12:33:09;;;;;;;3.40;2.30;;;22.80;60.10;;;;;;5053389;28;20431;-61
2022/06/23 12:35:46;;;;;;;5.07;1.83;;;22.80;60.10;;;;;;5055621;28;20052;-61
2022/06/23 12:38:19;;;;;;;2.70;2.03;;;22.80;60.10;;;;;;5055175;28;20036;-61
2022/06/23 12:40:49;;;;;;;2.30;1.88;;;22.80;60.10;;;;;;5070026;28;20087;-62
2022/06/23 12:43:21;;;;;;;2.47;1.80;;;22.80;60.10;;;;;;5070998;28;20040;-61
2022/06/23 12:46:16;;;;;;;3.53;2.05;;;22.80;60.10;;;;;;5070919;28;20097;-61
2022/06/23 12:48:54;;;;;;;2.75;1.80;;;22.80;60.00;;;;;;5070720;28;20076;-63
2022/06/23 12:51:32;;;;;;;4.32;2.20;;;22.80;60.10;;;;;;5072090;28;20044;-62
2022/06/23 12:54:04;;;;;;;2.58;2.08;;;22.80;60.00;;;;;;5053391;28;20076;-61
2022/06/23 12:56:54;;;;;;;3.15;1.90;;;22.80;60.00;;;;;;5070519;28;20400;-61
2022/06/23 12:59:43;;;;;;;2.70;1.90;;;22.80;60.00;;;;;;5071065;28;20072;-61
2022/06/23 13:02:21;;;;;;;2.88;1.80;;;22.80;59.90;;;;;;5070829;28;20105;-61
2022/06/23 13:05:07;;;;;;;5.05;2.10;;;22.80;59.90;;;;;;5053717;28;20544;-62
2022/06/23 13:07:55;;;;;;;3.65;1.95;;;22.80;59.90;;;;;;5071405;28;20036;-61
2022/06/23 13:10:30;;;;;;;2.17;1.58;;;22.80;59.90;;;;;;5073069;28;20048;-61
2022/06/23 13:13:12;;;;;;;2.42;1.85;;;22.80;59.90;;;;;;5074259;28;20076;-61
2022/06/23 13:15:39;;;;;;;2.10;1.70;;;22.80;59.90;;;;;;5073327;28;20044;-62
2022/06/23 13:18:23;;;;;;;3.27;1.90;;;22.80;59.80;;;;;;5074005;28;20492;-62
2022/06/23 13:21:11;;;;;;;2.92;1.73;;;22.80;59.80;;;;;;5073192;28;20064;-62
2022/06/23 13:23:39;;;;;;;2.95;1.90;;;22.90;59.90;;;;;;5074457;28;20052;-62
2022/06/23 13:26:23;;;;;;;2.97;2.15;;;22.90;59.90;;;;;;5056942;28;20489;-62
2022/06/23 13:29:00;;;;;;;3.22;1.98;;;22.90;59.80;;;;;;5073219;28;20068;-62
2022/06/23 13:31:39;;;;;;;2.85;2.00;;;22.90;59.80;;;;;;5074962;28;20443;-62
2022/06/23 13:34:29;;;;;;;2.35;1.95;;;22.90;59.90;;;;;;5075003;28;20476;-61
2022/06/23 13:36:56;;;;;;;2.80;1.80;;;22.90;59.70;;;;;;5074193;28;20037;-62
2022/06/23 13:39:43;;;;;;;2.30;1.80;;;22.90;59.80;;;;;;5074069;28;20056;-62
2022/06/23 13:42:16;;;;;;;2.08;1.88;;;22.90;59.70;;;;;;5072996;28;20090;-62
2022/06/23 13:45:03;;;;;;;2.25;1.70;;;22.90;59.70;;;;;;5072996;28;20408;-62
2022/06/23 13:47:33;;;;;;;4.47;1.83;;;22.90;59.70;;;;;;5073909;28;20491;-62
2022/06/23 13:50:10;;;;;;;2.55;1.88;;;22.90;59.60;;;;;;5072586;28;20052;-62